sensor_id;sensor_type;location;lat;lon;timestamp;P1;durP1;ratioP1;P2;durP2;ratioP2
31537;SDS011;18147;51.952;6.146;2024-01-06T00:01:30;41.03;;;21.10;;
31537;SDS011;18147;51.952;6.146;2024-01-06T00:03:56;38.35;;;18.75;;
31537;SDS011;18147;51.952;6.146;2024-01-06T00:06:21;37.13;;;17.52;;
31537;SDS011;18147;51.952;6.146;2024-01-06T00:08:47;31.55;;;15.85;;
31537;SDS011;18147;51.952;6.146;2024-01-06T00:11:19;32.67;;;17.13;;
31537;SDS011;18147;51.952;6.146;2024-01-06T00:13:47;25.33;;;13.82;;
31537;SDS011;18147;51.952;6.146;2024-01-06T00:16:13;25.33;;;13.98;;
31537;SDS011;18147;51.952;6.146;2024-01-06T00:18:41;33.58;;;14.23;;
31537;SDS011;18147;51.952;6.146;2024-01-06T00:21:07;23.45;;;12.75;;
31537;SDS011;18147;51.952;6.146;2024-01-06T00:23:33;24.08;;;13.00;;
31537;SDS011;18147;51.952;6.146;2024-01-06T00:25:58;24.65;;;13.32;;
31537;SDS011;18147;51.952;6.146;2024-01-06T00:28:24;24.98;;;13.23;;
31537;SDS011;18147;51.952;6.146;2024-01-06T00:30:50;24.50;;;12.48;;
31537;SDS011;18147;51.952;6.146;2024-01-06T00:33:15;27.08;;;13.27;;
31537;SDS011;18147;51.952;6.146;2024-01-06T00:35:40;26.67;;;13.32;;
31537;SDS011;18147;51.952;6.146;2024-01-06T00:38:06;23.92;;;13.13;;
31537;SDS011;18147;51.952;6.146;2024-01-06T00:40:31;25.48;;;13.98;;
31537;SDS011;18147;51.952;6.146;2024-01-06T00:42:58;24.05;;;12.85;;
31537;SDS011;18147;51.952;6.146;2024-01-06T00:45:23;28.77;;;13.13;;
31537;SDS011;18147;51.952;6.146;2024-01-06T00:47:49;28.45;;;14.10;;
31537;SDS011;18147;51.952;6.146;2024-01-06T00:50:14;26.17;;;14.05;;
31537;SDS011;18147;51.952;6.146;2024-01-06T00:52:41;29.60;;;14.27;;
31537;SDS011;18147;51.952;6.146;2024-01-06T00:55:06;31.15;;;14.57;;
31537;SDS011;18147;51.952;6.146;2024-01-06T00:57:32;26.88;;;13.98;;
31537;SDS011;18147;51.952;6.146;2024-01-06T00:59:58;25.98;;;13.48;;
31537;SDS011;18147;51.952;6.146;2024-01-06T01:02:24;29.58;;;14.25;;
31537;SDS011;18147;51.952;6.146;2024-01-06T01:04:49;30.80;;;15.13;;
31537;SDS011;18147;51.952;6.146;2024-01-06T01:07:15;30.40;;;16.00;;
31537;SDS011;18147;51.952;6.146;2024-01-06T01:09:41;27.85;;;15.23;;
31537;SDS011;18147;51.952;6.146;2024-01-06T01:12:06;30.20;;;15.75;;
31537;SDS011;18147;51.952;6.146;2024-01-06T01:14:32;31.15;;;15.32;;
31537;SDS011;18147;51.952;6.146;2024-01-06T01:16:57;33.13;;;16.13;;
31537;SDS011;18147;51.952;6.146;2024-01-06T01:19:23;31.63;;;16.33;;
31537;SDS011;18147;51.952;6.146;2024-01-06T01:21:48;28.65;;;16.05;;
31537;SDS011;18147;51.952;6.146;2024-01-06T01:24:14;32.17;;;17.17;;
31537;SDS011;18147;51.952;6.146;2024-01-06T01:26:40;32.10;;;16.75;;
31537;SDS011;18147;51.952;6.146;2024-01-06T01:29:05;35.28;;;18.33;;
31537;SDS011;18147;51.952;6.146;2024-01-06T01:31:30;36.65;;;17.73;;
31537;SDS011;18147;51.952;6.146;2024-01-06T01:33:56;38.30;;;19.15;;
31537;SDS011;18147;51.952;6.146;2024-01-06T01:36:21;37.10;;;18.10;;
31537;SDS011;18147;51.952;6.146;2024-01-06T01:38:47;35.60;;;17.38;;
31537;SDS011;18147;51.952;6.146;2024-01-06T01:41:12;34.92;;;18.20;;
31537;SDS011;18147;51.952;6.146;2024-01-06T01:43:38;38.03;;;18.77;;
31537;SDS011;18147;51.952;6.146;2024-01-06T01:46:04;36.38;;;19.02;;
31537;SDS011;18147;51.952;6.146;2024-01-06T01:48:29;32.13;;;17.13;;
31537;SDS011;18147;51.952;6.146;2024-01-06T01:50:58;37.42;;;18.98;;
31537;SDS011;18147;51.952;6.146;2024-01-06T01:53:24;34.63;;;18.38;;
31537;SDS011;18147;51.952;6.146;2024-01-06T01:55:51;36.05;;;17.95;;
31537;SDS011;18147;51.952;6.146;2024-01-06T01:58:17;37.38;;;19.10;;
31537;SDS011;18147;51.952;6.146;2024-01-06T02:00:43;33.53;;;18.38;;
31537;SDS011;18147;51.952;6.146;2024-01-06T02:03:09;36.35;;;18.95;;
31537;SDS011;18147;51.952;6.146;2024-01-06T02:05:38;38.47;;;19.90;;
31537;SDS011;18147;51.952;6.146;2024-01-06T02:08:03;34.65;;;17.85;;
31537;SDS011;18147;51.952;6.146;2024-01-06T02:10:29;35.78;;;18.83;;
31537;SDS011;18147;51.952;6.146;2024-01-06T02:12:55;31.95;;;17.73;;
31537;SDS011;18147;51.952;6.146;2024-01-06T02:15:20;40.45;;;19.83;;
31537;SDS011;18147;51.952;6.146;2024-01-06T02:17:46;37.08;;;18.75;;
31537;SDS011;18147;51.952;6.146;2024-01-06T02:20:12;38.75;;;19.15;;
31537;SDS011;18147;51.952;6.146;2024-01-06T02:22:39;42.08;;;19.88;;
31537;SDS011;18147;51.952;6.146;2024-01-06T02:25:05;41.92;;;20.23;;
31537;SDS011;18147;51.952;6.146;2024-01-06T02:27:38;35.92;;;18.08;;
31537;SDS011;18147;51.952;6.146;2024-01-06T02:30:04;39.75;;;18.50;;
31537;SDS011;18147;51.952;6.146;2024-01-06T02:32:31;35.88;;;18.40;;
31537;SDS011;18147;51.952;6.146;2024-01-06T02:34:57;39.50;;;19.35;;
31537;SDS011;18147;51.952;6.146;2024-01-06T02:37:22;38.28;;;19.23;;
31537;SDS011;18147;51.952;6.146;2024-01-06T02:39:48;39.10;;;19.48;;
31537;SDS011;18147;51.952;6.146;2024-01-06T02:42:13;39.53;;;19.35;;
31537;SDS011;18147;51.952;6.146;2024-01-06T02:44:42;41.67;;;19.05;;
31537;SDS011;18147;51.952;6.146;2024-01-06T02:47:07;41.80;;;19.92;;
31537;SDS011;18147;51.952;6.146;2024-01-06T02:49:33;44.65;;;21.45;;
31537;SDS011;18147;51.952;6.146;2024-01-06T02:51:58;45.05;;;22.50;;
31537;SDS011;18147;51.952;6.146;2024-01-06T02:54:24;53.28;;;24.95;;
31537;SDS011;18147;51.952;6.146;2024-01-06T02:56:49;48.78;;;22.73;;
31537;SDS011;18147;51.952;6.146;2024-01-06T02:59:15;50.38;;;22.83;;
31537;SDS011;18147;51.952;6.146;2024-01-06T03:01:40;59.88;;;26.40;;
31537;SDS011;18147;51.952;6.146;2024-01-06T03:04:06;60.47;;;26.83;;
31537;SDS011;18147;51.952;6.146;2024-01-06T03:06:31;60.35;;;26.92;;
31537;SDS011;18147;51.952;6.146;2024-01-06T03:08:56;62.95;;;26.90;;
31537;SDS011;18147;51.952;6.146;2024-01-06T03:11:22;54.00;;;25.70;;
31537;SDS011;18147;51.952;6.146;2024-01-06T03:13:48;55.00;;;25.42;;
31537;SDS011;18147;51.952;6.146;2024-01-06T03:16:13;55.88;;;24.90;;
31537;SDS011;18147;51.952;6.146;2024-01-06T03:18:39;53.55;;;25.15;;
31537;SDS011;18147;51.952;6.146;2024-01-06T03:21:04;56.80;;;23.60;;
31537;SDS011;18147;51.952;6.146;2024-01-06T03:23:30;58.50;;;25.77;;
31537;SDS011;18147;51.952;6.146;2024-01-06T03:25:55;57.00;;;25.15;;
31537;SDS011;18147;51.952;6.146;2024-01-06T03:28:21;63.97;;;27.73;;
31537;SDS011;18147;51.952;6.146;2024-01-06T03:30:46;52.47;;;24.95;;
31537;SDS011;18147;51.952;6.146;2024-01-06T03:33:12;53.28;;;24.13;;
31537;SDS011;18147;51.952;6.146;2024-01-06T03:35:37;53.75;;;24.88;;
31537;SDS011;18147;51.952;6.146;2024-01-06T03:38:03;54.25;;;25.17;;
31537;SDS011;18147;51.952;6.146;2024-01-06T03:40:28;36.05;;;16.98;;
31537;SDS011;18147;51.952;6.146;2024-01-06T03:42:54;35.88;;;16.73;;
31537;SDS011;18147;51.952;6.146;2024-01-06T03:45:19;39.78;;;19.30;;
31537;SDS011;18147;51.952;6.146;2024-01-06T03:47:45;41.10;;;18.70;;
31537;SDS011;18147;51.952;6.146;2024-01-06T03:50:11;35.55;;;16.98;;
31537;SDS011;18147;51.952;6.146;2024-01-06T03:52:38;34.55;;;17.33;;
31537;SDS011;18147;51.952;6.146;2024-01-06T03:55:03;40.63;;;18.27;;
31537;SDS011;18147;51.952;6.146;2024-01-06T03:57:30;40.92;;;18.73;;
31537;SDS011;18147;51.952;6.146;2024-01-06T03:59:56;41.15;;;18.90;;
31537;SDS011;18147;51.952;6.146;2024-01-06T04:02:22;39.97;;;18.48;;
31537;SDS011;18147;51.952;6.146;2024-01-06T04:04:49;42.97;;;19.02;;
31537;SDS011;18147;51.952;6.146;2024-01-06T04:07:14;40.60;;;19.50;;
31537;SDS011;18147;51.952;6.146;2024-01-06T04:09:41;50.13;;;22.00;;
31537;SDS011;18147;51.952;6.146;2024-01-06T04:12:07;55.75;;;24.85;;
31537;SDS011;18147;51.952;6.146;2024-01-06T04:14:33;58.50;;;25.10;;
31537;SDS011;18147;51.952;6.146;2024-01-06T04:16:58;64.43;;;26.52;;
31537;SDS011;18147;51.952;6.146;2024-01-06T04:19:24;67.93;;;27.23;;
31537;SDS011;18147;51.952;6.146;2024-01-06T04:21:49;78.55;;;28.73;;
31537;SDS011;18147;51.952;6.146;2024-01-06T04:24:15;84.13;;;33.38;;
31537;SDS011;18147;51.952;6.146;2024-01-06T04:26:41;75.53;;;30.52;;
31537;SDS011;18147;51.952;6.146;2024-01-06T04:29:10;75.95;;;30.75;;
31537;SDS011;18147;51.952;6.146;2024-01-06T04:31:35;79.70;;;32.13;;
31537;SDS011;18147;51.952;6.146;2024-01-06T04:34:01;78.57;;;33.35;;
31537;SDS011;18147;51.952;6.146;2024-01-06T04:36:28;86.75;;;32.58;;
31537;SDS011;18147;51.952;6.146;2024-01-06T04:38:54;77.90;;;31.25;;
31537;SDS011;18147;51.952;6.146;2024-01-06T04:41:19;74.13;;;31.00;;
31537;SDS011;18147;51.952;6.146;2024-01-06T04:43:45;72.40;;;30.40;;
31537;SDS011;18147;51.952;6.146;2024-01-06T04:46:11;77.55;;;32.30;;
31537;SDS011;18147;51.952;6.146;2024-01-06T04:48:38;82.70;;;32.55;;
31537;SDS011;18147;51.952;6.146;2024-01-06T04:51:05;74.70;;;29.75;;
31537;SDS011;18147;51.952;6.146;2024-01-06T04:53:34;77.10;;;30.23;;
31537;SDS011;18147;51.952;6.146;2024-01-06T04:56:00;70.63;;;30.50;;
31537;SDS011;18147;51.952;6.146;2024-01-06T04:58:25;70.90;;;31.98;;
31537;SDS011;18147;51.952;6.146;2024-01-06T05:00:51;82.63;;;31.58;;
31537;SDS011;18147;51.952;6.146;2024-01-06T05:03:17;86.88;;;33.38;;
31537;SDS011;18147;51.952;6.146;2024-01-06T05:05:43;78.47;;;32.55;;
31537;SDS011;18147;51.952;6.146;2024-01-06T05:08:08;83.07;;;31.98;;
31537;SDS011;18147;51.952;6.146;2024-01-06T05:10:34;94.97;;;36.10;;
31537;SDS011;18147;51.952;6.146;2024-01-06T05:13:00;81.70;;;33.53;;
31537;SDS011;18147;51.952;6.146;2024-01-06T05:15:25;74.72;;;30.42;;
31537;SDS011;18147;51.952;6.146;2024-01-06T05:17:51;64.13;;;28.13;;
31537;SDS011;18147;51.952;6.146;2024-01-06T05:20:17;64.80;;;28.17;;
31537;SDS011;18147;51.952;6.146;2024-01-06T05:22:42;65.50;;;29.85;;
31537;SDS011;18147;51.952;6.146;2024-01-06T05:25:08;69.28;;;30.27;;
31537;SDS011;18147;51.952;6.146;2024-01-06T05:27:34;63.38;;;29.27;;
31537;SDS011;18147;51.952;6.146;2024-01-06T05:30:00;71.18;;;32.00;;
31537;SDS011;18147;51.952;6.146;2024-01-06T05:32:26;71.88;;;29.80;;
31537;SDS011;18147;51.952;6.146;2024-01-06T05:34:52;71.50;;;30.10;;
31537;SDS011;18147;51.952;6.146;2024-01-06T05:37:17;66.30;;;30.05;;
31537;SDS011;18147;51.952;6.146;2024-01-06T05:39:43;63.40;;;29.02;;
31537;SDS011;18147;51.952;6.146;2024-01-06T05:42:09;71.18;;;29.27;;
31537;SDS011;18147;51.952;6.146;2024-01-06T05:44:38;59.30;;;27.95;;
31537;SDS011;18147;51.952;6.146;2024-01-06T05:47:04;56.30;;;26.33;;
31537;SDS011;18147;51.952;6.146;2024-01-06T05:49:30;55.50;;;27.00;;
31537;SDS011;18147;51.952;6.146;2024-01-06T05:51:55;63.38;;;27.58;;
31537;SDS011;18147;51.952;6.146;2024-01-06T05:54:21;52.55;;;25.95;;
31537;SDS011;18147;51.952;6.146;2024-01-06T05:56:46;60.92;;;27.65;;
31537;SDS011;18147;51.952;6.146;2024-01-06T05:59:12;52.70;;;23.50;;
31537;SDS011;18147;51.952;6.146;2024-01-06T06:01:38;52.25;;;24.45;;
31537;SDS011;18147;51.952;6.146;2024-01-06T06:04:03;61.28;;;27.13;;
31537;SDS011;18147;51.952;6.146;2024-01-06T06:06:29;50.97;;;24.50;;
31537;SDS011;18147;51.952;6.146;2024-01-06T06:08:55;55.20;;;25.48;;
31537;SDS011;18147;51.952;6.146;2024-01-06T06:11:21;58.97;;;26.38;;
31537;SDS011;18147;51.952;6.146;2024-01-06T06:13:46;53.28;;;25.25;;
31537;SDS011;18147;51.952;6.146;2024-01-06T06:16:12;55.38;;;24.55;;
31537;SDS011;18147;51.952;6.146;2024-01-06T06:18:38;62.67;;;27.70;;
31537;SDS011;18147;51.952;6.146;2024-01-06T06:21:03;56.20;;;25.77;;
31537;SDS011;18147;51.952;6.146;2024-01-06T06:23:32;56.03;;;25.10;;
31537;SDS011;18147;51.952;6.146;2024-01-06T06:25:58;66.25;;;27.33;;
31537;SDS011;18147;51.952;6.146;2024-01-06T06:28:24;73.75;;;27.58;;
31537;SDS011;18147;51.952;6.146;2024-01-06T06:30:50;59.10;;;27.40;;
31537;SDS011;18147;51.952;6.146;2024-01-06T06:33:15;64.00;;;28.55;;
31537;SDS011;18147;51.952;6.146;2024-01-06T06:35:41;55.28;;;25.45;;
31537;SDS011;18147;51.952;6.146;2024-01-06T06:38:06;65.28;;;28.40;;
31537;SDS011;18147;51.952;6.146;2024-01-06T06:40:32;69.85;;;29.67;;
31537;SDS011;18147;51.952;6.146;2024-01-06T06:42:57;72.57;;;32.92;;
31537;SDS011;18147;51.952;6.146;2024-01-06T06:45:23;73.75;;;33.70;;
31537;SDS011;18147;51.952;6.146;2024-01-06T06:47:49;78.55;;;32.70;;
31537;SDS011;18147;51.952;6.146;2024-01-06T06:50:17;78.15;;;32.38;;
31537;SDS011;18147;51.952;6.146;2024-01-06T06:52:46;75.50;;;32.30;;
31537;SDS011;18147;51.952;6.146;2024-01-06T06:55:12;82.82;;;32.42;;
31537;SDS011;18147;51.952;6.146;2024-01-06T06:57:37;61.22;;;26.60;;
31537;SDS011;18147;51.952;6.146;2024-01-06T07:00:04;52.95;;;23.48;;
31537;SDS011;18147;51.952;6.146;2024-01-06T07:02:32;44.47;;;21.65;;
31537;SDS011;18147;51.952;6.146;2024-01-06T07:04:59;41.17;;;21.35;;
31537;SDS011;18147;51.952;6.146;2024-01-06T07:07:24;42.55;;;21.50;;
31537;SDS011;18147;51.952;6.146;2024-01-06T07:09:50;46.78;;;22.27;;
31537;SDS011;18147;51.952;6.146;2024-01-06T07:12:15;47.90;;;23.67;;
31537;SDS011;18147;51.952;6.146;2024-01-06T07:14:41;51.35;;;25.60;;
31537;SDS011;18147;51.952;6.146;2024-01-06T07:17:07;59.05;;;26.77;;
31537;SDS011;18147;51.952;6.146;2024-01-06T07:19:34;54.65;;;24.85;;
31537;SDS011;18147;51.952;6.146;2024-01-06T07:22:00;58.13;;;27.00;;
31537;SDS011;18147;51.952;6.146;2024-01-06T07:24:25;58.22;;;27.45;;
31537;SDS011;18147;51.952;6.146;2024-01-06T07:26:51;58.47;;;28.38;;
31537;SDS011;18147;51.952;6.146;2024-01-06T07:29:17;66.55;;;30.05;;
31537;SDS011;18147;51.952;6.146;2024-01-06T07:31:44;59.15;;;27.38;;
31537;SDS011;18147;51.952;6.146;2024-01-06T07:34:09;61.55;;;28.10;;
31537;SDS011;18147;51.952;6.146;2024-01-06T07:36:35;61.38;;;29.00;;
31537;SDS011;18147;51.952;6.146;2024-01-06T07:39:01;57.20;;;27.65;;
31537;SDS011;18147;51.952;6.146;2024-01-06T07:41:27;55.30;;;26.08;;
31537;SDS011;18147;51.952;6.146;2024-01-06T07:43:53;63.78;;;28.73;;
31537;SDS011;18147;51.952;6.146;2024-01-06T07:46:19;64.07;;;29.42;;
31537;SDS011;18147;51.952;6.146;2024-01-06T07:48:45;63.83;;;28.30;;
31537;SDS011;18147;51.952;6.146;2024-01-06T07:51:10;67.40;;;29.20;;
31537;SDS011;18147;51.952;6.146;2024-01-06T07:53:36;58.85;;;27.48;;
31537;SDS011;18147;51.952;6.146;2024-01-06T07:56:01;60.38;;;28.38;;
31537;SDS011;18147;51.952;6.146;2024-01-06T07:58:27;66.60;;;29.65;;
31537;SDS011;18147;51.952;6.146;2024-01-06T08:00:53;68.22;;;30.83;;
31537;SDS011;18147;51.952;6.146;2024-01-06T08:03:19;59.30;;;28.45;;
31537;SDS011;18147;51.952;6.146;2024-01-06T08:05:44;64.47;;;31.27;;
31537;SDS011;18147;51.952;6.146;2024-01-06T08:08:10;63.95;;;30.80;;
31537;SDS011;18147;51.952;6.146;2024-01-06T08:10:38;70.72;;;32.13;;
31537;SDS011;18147;51.952;6.146;2024-01-06T08:13:03;71.55;;;30.65;;
31537;SDS011;18147;51.952;6.146;2024-01-06T08:15:29;70.75;;;32.15;;
31537;SDS011;18147;51.952;6.146;2024-01-06T08:17:54;73.55;;;32.05;;
31537;SDS011;18147;51.952;6.146;2024-01-06T08:20:20;58.40;;;27.15;;
31537;SDS011;18147;51.952;6.146;2024-01-06T08:22:45;61.20;;;28.33;;
31537;SDS011;18147;51.952;6.146;2024-01-06T08:25:11;62.50;;;29.95;;
31537;SDS011;18147;51.952;6.146;2024-01-06T08:27:38;58.35;;;27.52;;
31537;SDS011;18147;51.952;6.146;2024-01-06T08:30:04;60.05;;;30.42;;
31537;SDS011;18147;51.952;6.146;2024-01-06T08:32:30;68.40;;;30.92;;
31537;SDS011;18147;51.952;6.146;2024-01-06T08:34:55;78.35;;;32.33;;
31537;SDS011;18147;51.952;6.146;2024-01-06T08:37:21;73.68;;;29.67;;
31537;SDS011;18147;51.952;6.146;2024-01-06T08:39:46;79.20;;;32.42;;
31537;SDS011;18147;51.952;6.146;2024-01-06T08:42:12;72.38;;;32.10;;
31537;SDS011;18147;51.952;6.146;2024-01-06T08:44:38;65.93;;;28.65;;
31537;SDS011;18147;51.952;6.146;2024-01-06T08:47:04;74.18;;;32.25;;
31537;SDS011;18147;51.952;6.146;2024-01-06T08:49:30;67.30;;;30.13;;
31537;SDS011;18147;51.952;6.146;2024-01-06T08:51:55;79.60;;;33.38;;
31537;SDS011;18147;51.952;6.146;2024-01-06T08:54:21;72.50;;;29.23;;
31537;SDS011;18147;51.952;6.146;2024-01-06T08:56:46;58.88;;;26.85;;
31537;SDS011;18147;51.952;6.146;2024-01-06T08:59:12;69.85;;;28.83;;
31537;SDS011;18147;51.952;6.146;2024-01-06T09:01:37;65.68;;;27.08;;
31537;SDS011;18147;51.952;6.146;2024-01-06T09:04:03;67.47;;;29.13;;
31537;SDS011;18147;51.952;6.146;2024-01-06T09:06:29;61.83;;;26.50;;
31537;SDS011;18147;51.952;6.146;2024-01-06T09:08:55;55.92;;;25.58;;
31537;SDS011;18147;51.952;6.146;2024-01-06T09:11:20;58.00;;;25.00;;
31537;SDS011;18147;51.952;6.146;2024-01-06T09:13:46;49.55;;;22.52;;
31537;SDS011;18147;51.952;6.146;2024-01-06T09:16:11;53.05;;;23.30;;
31537;SDS011;18147;51.952;6.146;2024-01-06T09:18:37;47.53;;;23.40;;
31537;SDS011;18147;51.952;6.146;2024-01-06T09:21:02;49.35;;;22.02;;
31537;SDS011;18147;51.952;6.146;2024-01-06T09:23:28;49.85;;;22.20;;
31537;SDS011;18147;51.952;6.146;2024-01-06T09:25:54;54.95;;;23.17;;
31537;SDS011;18147;51.952;6.146;2024-01-06T09:28:19;51.83;;;22.70;;
31537;SDS011;18147;51.952;6.146;2024-01-06T09:30:48;53.78;;;23.95;;
31537;SDS011;18147;51.952;6.146;2024-01-06T09:33:14;47.08;;;22.90;;
31537;SDS011;18147;51.952;6.146;2024-01-06T09:35:42;51.17;;;22.40;;
31537;SDS011;18147;51.952;6.146;2024-01-06T09:38:09;55.03;;;25.25;;
31537;SDS011;18147;51.952;6.146;2024-01-06T09:40:35;51.08;;;23.92;;
31537;SDS011;18147;51.952;6.146;2024-01-06T09:43:08;55.63;;;26.25;;
31537;SDS011;18147;51.952;6.146;2024-01-06T09:45:34;50.88;;;22.58;;
31537;SDS011;18147;51.952;6.146;2024-01-06T09:48:02;54.15;;;24.42;;
31537;SDS011;18147;51.952;6.146;2024-01-06T09:50:41;53.47;;;22.40;;
31537;SDS011;18147;51.952;6.146;2024-01-06T09:53:11;52.05;;;22.83;;
31537;SDS011;18147;51.952;6.146;2024-01-06T09:55:37;46.58;;;23.83;;
31537;SDS011;18147;51.952;6.146;2024-01-06T09:58:04;47.78;;;23.80;;
31537;SDS011;18147;51.952;6.146;2024-01-06T10:00:31;51.03;;;25.13;;
31537;SDS011;18147;51.952;6.146;2024-01-06T10:02:57;48.85;;;23.05;;
31537;SDS011;18147;51.952;6.146;2024-01-06T10:05:23;48.13;;;23.30;;
31537;SDS011;18147;51.952;6.146;2024-01-06T10:07:49;55.25;;;23.92;;
31537;SDS011;18147;51.952;6.146;2024-01-06T10:10:15;50.83;;;24.17;;
31537;SDS011;18147;51.952;6.146;2024-01-06T10:12:41;49.22;;;23.15;;
31537;SDS011;18147;51.952;6.146;2024-01-06T10:15:08;49.33;;;21.15;;
31537;SDS011;18147;51.952;6.146;2024-01-06T10:17:38;50.22;;;25.42;;
31537;SDS011;18147;51.952;6.146;2024-01-06T10:20:09;46.78;;;22.08;;
31537;SDS011;18147;51.952;6.146;2024-01-06T10:22:42;43.85;;;22.30;;
31537;SDS011;18147;51.952;6.146;2024-01-06T10:25:08;48.35;;;22.13;;
31537;SDS011;18147;51.952;6.146;2024-01-06T10:27:35;51.55;;;24.80;;
31537;SDS011;18147;51.952;6.146;2024-01-06T10:30:01;44.75;;;21.73;;
31537;SDS011;18147;51.952;6.146;2024-01-06T10:32:27;49.35;;;24.23;;
31537;SDS011;18147;51.952;6.146;2024-01-06T10:34:57;48.15;;;23.73;;
31537;SDS011;18147;51.952;6.146;2024-01-06T10:37:23;50.22;;;23.92;;
31537;SDS011;18147;51.952;6.146;2024-01-06T10:40:04;51.10;;;26.67;;
31537;SDS011;18147;51.952;6.146;2024-01-06T10:42:33;54.83;;;27.63;;
31537;SDS011;18147;51.952;6.146;2024-01-06T10:44:59;56.15;;;26.58;;
31537;SDS011;18147;51.952;6.146;2024-01-06T10:47:25;50.70;;;23.75;;
31537;SDS011;18147;51.952;6.146;2024-01-06T10:49:58;52.53;;;25.52;;
31537;SDS011;18147;51.952;6.146;2024-01-06T10:52:27;50.65;;;23.73;;
31537;SDS011;18147;51.952;6.146;2024-01-06T10:54:56;51.13;;;24.48;;
31537;SDS011;18147;51.952;6.146;2024-01-06T10:57:22;58.50;;;25.00;;
31537;SDS011;18147;51.952;6.146;2024-01-06T10:59:49;60.30;;;27.08;;
31537;SDS011;18147;51.952;6.146;2024-01-06T11:02:16;58.45;;;27.10;;
31537;SDS011;18147;51.952;6.146;2024-01-06T11:04:45;59.13;;;26.38;;
31537;SDS011;18147;51.952;6.146;2024-01-06T11:07:16;57.15;;;25.52;;
31537;SDS011;18147;51.952;6.146;2024-01-06T11:10:25;55.17;;;25.80;;
31537;SDS011;18147;51.952;6.146;2024-01-06T11:12:35;55.90;;;24.87;;
31537;SDS011;18147;51.952;6.146;2024-01-06T11:15:00;51.80;;;25.67;;
31537;SDS011;18147;51.952;6.146;2024-01-06T11:20:18;58.93;;;27.23;;
31537;SDS011;18147;51.952;6.146;2024-01-06T11:22:46;52.70;;;25.70;;
31537;SDS011;18147;51.952;6.146;2024-01-06T11:25:17;53.78;;;26.70;;
31537;SDS011;18147;51.952;6.146;2024-01-06T11:27:46;55.38;;;25.90;;
31537;SDS011;18147;51.952;6.146;2024-01-06T11:30:46;54.13;;;26.60;;
31537;SDS011;18147;51.952;6.146;2024-01-06T11:35:33;56.88;;;26.65;;
31537;SDS011;18147;51.952;6.146;2024-01-06T11:38:02;57.33;;;26.40;;
31537;SDS011;18147;51.952;6.146;2024-01-06T11:40:33;56.70;;;27.73;;
31537;SDS011;18147;51.952;6.146;2024-01-06T11:43:01;54.80;;;26.00;;
31537;SDS011;18147;51.952;6.146;2024-01-06T11:45:41;54.25;;;26.52;;
31537;SDS011;18147;51.952;6.146;2024-01-06T11:48:08;56.63;;;26.92;;
31537;SDS011;18147;51.952;6.146;2024-01-06T11:50:35;55.58;;;24.92;;
31537;SDS011;18147;51.952;6.146;2024-01-06T11:53:03;60.95;;;28.63;;
31537;SDS011;18147;51.952;6.146;2024-01-06T11:55:29;60.83;;;27.92;;
31537;SDS011;18147;51.952;6.146;2024-01-06T11:57:57;47.88;;;22.65;;
31537;SDS011;18147;51.952;6.146;2024-01-06T12:00:27;45.50;;;24.17;;
31537;SDS011;18147;51.952;6.146;2024-01-06T12:02:56;47.63;;;23.92;;
31537;SDS011;18147;51.952;6.146;2024-01-06T12:05:22;43.45;;;23.25;;
31537;SDS011;18147;51.952;6.146;2024-01-06T12:07:59;44.13;;;22.17;;
31537;SDS011;18147;51.952;6.146;2024-01-06T12:10:27;42.58;;;22.55;;
31537;SDS011;18147;51.952;6.146;2024-01-06T12:13:01;35.90;;;20.33;;
31537;SDS011;18147;51.952;6.146;2024-01-06T12:15:27;38.33;;;21.23;;
31537;SDS011;18147;51.952;6.146;2024-01-06T12:17:54;45.05;;;21.63;;
31537;SDS011;18147;51.952;6.146;2024-01-06T12:20:21;42.92;;;23.85;;
31537;SDS011;18147;51.952;6.146;2024-01-06T12:22:48;45.50;;;23.92;;
31537;SDS011;18147;51.952;6.146;2024-01-06T12:25:16;38.88;;;22.90;;
31537;SDS011;18147;51.952;6.146;2024-01-06T12:27:42;38.30;;;20.92;;
31537;SDS011;18147;51.952;6.146;2024-01-06T12:30:18;37.72;;;21.85;;
31537;SDS011;18147;51.952;6.146;2024-01-06T12:32:45;36.00;;;22.40;;
31537;SDS011;18147;51.952;6.146;2024-01-06T12:35:11;43.75;;;24.23;;
31537;SDS011;18147;51.952;6.146;2024-01-06T12:37:37;46.67;;;23.52;;
31537;SDS011;18147;51.952;6.146;2024-01-06T12:40:03;41.00;;;22.80;;
31537;SDS011;18147;51.952;6.146;2024-01-06T12:42:29;39.22;;;21.60;;
31537;SDS011;18147;51.952;6.146;2024-01-06T12:44:55;39.78;;;21.80;;
31537;SDS011;18147;51.952;6.146;2024-01-06T12:47:20;39.10;;;22.58;;
31537;SDS011;18147;51.952;6.146;2024-01-06T12:49:46;36.67;;;20.75;;
31537;SDS011;18147;51.952;6.146;2024-01-06T12:52:11;38.42;;;23.20;;
31537;SDS011;18147;51.952;6.146;2024-01-06T12:54:37;38.85;;;23.65;;
31537;SDS011;18147;51.952;6.146;2024-01-06T12:57:04;38.78;;;20.98;;
31537;SDS011;18147;51.952;6.146;2024-01-06T12:59:30;43.25;;;24.13;;
31537;SDS011;18147;51.952;6.146;2024-01-06T13:01:56;39.22;;;22.90;;
31537;SDS011;18147;51.952;6.146;2024-01-06T13:04:22;40.45;;;23.63;;
31537;SDS011;18147;51.952;6.146;2024-01-06T13:06:47;40.75;;;22.75;;
31537;SDS011;18147;51.952;6.146;2024-01-06T13:09:14;43.10;;;25.45;;
31537;SDS011;18147;51.952;6.146;2024-01-06T13:11:42;44.20;;;24.35;;
31537;SDS011;18147;51.952;6.146;2024-01-06T13:14:08;45.25;;;26.13;;
31537;SDS011;18147;51.952;6.146;2024-01-06T13:16:33;45.10;;;26.38;;
31537;SDS011;18147;51.952;6.146;2024-01-06T13:19:00;45.40;;;25.15;;
31537;SDS011;18147;51.952;6.146;2024-01-06T13:21:27;48.80;;;26.13;;
31537;SDS011;18147;51.952;6.146;2024-01-06T13:23:54;44.75;;;24.98;;
31537;SDS011;18147;51.952;6.146;2024-01-06T13:26:26;49.95;;;25.17;;
31537;SDS011;18147;51.952;6.146;2024-01-06T13:28:53;41.13;;;25.23;;
31537;SDS011;18147;51.952;6.146;2024-01-06T13:31:18;47.30;;;26.73;;
31537;SDS011;18147;51.952;6.146;2024-01-06T13:33:44;47.00;;;26.20;;
31537;SDS011;18147;51.952;6.146;2024-01-06T13:36:09;45.95;;;27.20;;
31537;SDS011;18147;51.952;6.146;2024-01-06T13:38:35;47.75;;;26.85;;
31537;SDS011;18147;51.952;6.146;2024-01-06T13:41:00;51.05;;;28.92;;
31537;SDS011;18147;51.952;6.146;2024-01-06T13:43:26;49.40;;;26.83;;
31537;SDS011;18147;51.952;6.146;2024-01-06T13:45:51;47.50;;;28.05;;
31537;SDS011;18147;51.952;6.146;2024-01-06T13:48:17;52.13;;;28.92;;
31537;SDS011;18147;51.952;6.146;2024-01-06T13:50:44;58.55;;;31.60;;
31537;SDS011;18147;51.952;6.146;2024-01-06T13:53:10;51.05;;;30.00;;
31537;SDS011;18147;51.952;6.146;2024-01-06T13:55:35;54.80;;;30.27;;
31537;SDS011;18147;51.952;6.146;2024-01-06T13:58:01;50.20;;;28.10;;
31537;SDS011;18147;51.952;6.146;2024-01-06T14:00:26;59.15;;;30.17;;
31537;SDS011;18147;51.952;6.146;2024-01-06T14:02:52;51.78;;;28.80;;
31537;SDS011;18147;51.952;6.146;2024-01-06T14:05:19;48.45;;;28.33;;
31537;SDS011;18147;51.952;6.146;2024-01-06T14:07:44;56.97;;;29.02;;
31537;SDS011;18147;51.952;6.146;2024-01-06T14:10:13;53.92;;;28.80;;
31537;SDS011;18147;51.952;6.146;2024-01-06T14:12:40;53.22;;;28.92;;
31537;SDS011;18147;51.952;6.146;2024-01-06T14:15:06;56.38;;;31.75;;
31537;SDS011;18147;51.952;6.146;2024-01-06T14:17:32;49.80;;;29.17;;
31537;SDS011;18147;51.952;6.146;2024-01-06T14:19:58;51.33;;;29.38;;
31537;SDS011;18147;51.952;6.146;2024-01-06T14:22:23;51.42;;;28.13;;